Time;durP1;ratioP1;P1;durP2;ratioP2;P2;SDS_P1;SDS_P2;PMS_P1;PMS_P2;Temp;Humidity;BMP_temperature;BMP_pressure;BME280_temperature;BME280_humidity;BME280_pressure;Samples;Min_cycle;Max_cycle;Signal;HPM_P1;HPM_P2
2021/11/05 00:00:48;;;;;;;;;;;;;;;;;;6132305;23;19921;-87
2021/11/05 00:03:16;;;;;;;;;;;;;;;;;;6109003;23;19931;-84
2021/11/05 00:05:45;;;;;;;;;;;;;;;;;;6133524;23;19927;-90
2021/11/05 00:08:13;;;;;;;;;;;;;;;;;;6109234;23;19921;-86
2021/11/05 00:10:42;;;;;;;;;;;;;;;;;;6109431;23;19921;-87
2021/11/05 00:13:11;;;;;;;;;;;;;;;;;;6110603;23;19920;-86
2021/11/05 00:15:39;;;;;;;;;;;;;;;;;;6109782;23;20253;-88
2021/11/05 00:18:09;;;;;;;;;;;;;;;;;;6134388;23;19927;-89
2021/11/05 00:20:37;;;;;;;;;;;;;;;;;;6105309;23;19921;-88
2021/11/05 00:23:10;;;;;;;;;;;;;;;;;;6166113;23;20235;-86
2021/11/05 00:25:38;;;;;;;;;;;;;;;;;;6137221;23;19927;-83
2021/11/05 00:28:06;;;;;;;;;;;;;;;;;;6114541;23;19921;-85
2021/11/05 00:30:34;;;;;;;;;;;;;;;;;;6111601;23;20226;-83
2021/11/05 00:33:03;;;;;;;;;;;;;;;;;;6133089;23;19931;-84
2021/11/05 00:35:33;;;;;;;;;;;;;;;;;;6109832;23;20238;-83
2021/11/05 00:38:01;;;;;;;;;;;;;;;;;;6111131;23;20277;-83
2021/11/05 00:40:31;;;;;;;;;;;;;;;;;;6110684;23;19921;-85
2021/11/05 00:42:59;;;;;;;;;;;;;;;;;;6135601;23;19920;-84
2021/11/05 00:45:27;;;;;;;;;;;;;;;;;;6112345;23;19921;-83
2021/11/05 00:47:56;;;;;;;;;;;;;;;;;;6136712;23;19920;-83
2021/11/05 00:50:24;;;;;;;;;;;;;;;;;;6137288;23;19931;-84
2021/11/05 00:52:56;;;;;;;;;;;;;;;;;;6112425;23;19927;-86
2021/11/05 00:55:25;;;;;;;;;;;;;;;;;;6112815;23;19925;-90
2021/11/05 00:57:53;;;;;;;;;;;;;;;;;;6113352;23;19920;-89
2021/11/05 01:00:21;;;;;;;;;;;;;;;;;;6113472;23;19925;-84
2021/11/05 01:02:50;;;;;;;;;;;;;;;;;;6112772;23;19920;-87
2021/11/05 01:05:18;;;;;;;;;;;;;;;;;;6111375;23;19927;-87
2021/11/05 01:07:46;;;;;;;;;;;;;;;;;;6112449;23;19925;-85
2021/11/05 01:10:16;;;;;;;;;;;;;;;;;;6111779;23;19972;-85
2021/11/05 01:12:45;;;;;;;;;;;;;;;;;;6110626;23;19928;-82
2021/11/05 01:15:13;;;;;;;;;;;;;;;;;;6111535;23;19927;-84
2021/11/05 01:17:41;;;;;;;;;;;;;;;;;;6111672;23;19935;-85
2021/11/05 01:20:11;;;;;;;;;;;;;;;;;;6110572;23;19921;-86
2021/11/05 01:22:39;;;;;;;;;;;;;;;;;;6136399;23;20023;-84
2021/11/05 01:25:08;;;;;;;;;;;;;;;;;;6112902;23;19920;-88
2021/11/05 01:27:38;;;;;;;;;;;;;;;;;;6113374;23;19943;-85
2021/11/05 01:30:06;;;;;;;;;;;;;;;;;;6112982;23;19927;-85
2021/11/05 01:32:35;;;;;;;;;;;;;;;;;;6113533;23;19925;-87
2021/11/05 01:35:04;;;;;;;;;;;;;;;;;;6156715;23;19956;-91
2021/11/05 01:37:32;;;;;;;;;;;;;;;;;;6155308;23;19944;-86
2021/11/05 01:40:00;;;;;;;;;;;;;;;;;;6110833;23;19921;-84
2021/11/05 01:42:28;;;;;;;;;;;;;;;;;;6110678;23;19927;-85
2021/11/05 01:44:58;;;;;;;;;;;;;;;;;;6110744;23;19931;-84
2021/11/05 01:47:27;;;;;;;;;;;;;;;;;;6109653;23;19946;-86
2021/11/05 01:49:55;;;;;;;;;;;;;;;;;;6109038;23;19921;-84
2021/11/05 01:52:23;;;;;;;;;;;;;;;;;;6134511;23;19925;-82
2021/11/05 01:54:52;;;;;;;;;;;;;;;;;;6109733;23;20265;-83
2021/11/05 01:57:21;;;;;;;;;;;;;;;;;;6133517;23;19928;-88
2021/11/05 01:59:49;;;;;;;;;;;;;;;;;;6107867;23;19927;-86
2021/11/05 02:02:19;;;;;;;;;;;;;;;;;;6107174;23;19931;-84
2021/11/05 02:04:47;;;;;;;;;;;;;;;;;;6107827;23;19921;-87
2021/11/05 02:07:16;;;;;;;;;;;;;;;;;;6107633;23;19927;-85
2021/11/05 02:09:45;;;;;;;;;;;;;;;;;;6156228;23;19961;-95
2021/11/05 02:12:14;;;;;;;;;;;;;;;;;;6127012;23;19995;-88
2021/11/05 02:14:42;;;;;;;;;;;;;;;;;;6109668;23;19927;-87
2021/11/05 02:17:11;;;;;;;;;;;;;;;;;;6110933;23;20253;-81
2021/11/05 02:19:42;;;;;;;;;;;;;;;;;;6111340;23;20361;-83
2021/11/05 02:22:12;;;;;;;;;;;;;;;;;;6111769;23;19940;-83
2021/11/05 02:24:40;;;;;;;;;;;;;;;;;;6111603;23;19921;-84
2021/11/05 02:27:08;;;;;;;;;;;;;;;;;;6112338;23;19931;-83
2021/11/05 02:29:37;;;;;;;;;;;;;;;;;;6112759;23;19927;-81
2021/11/05 02:32:05;;;;;;;;;;;;;;;;;;6111966;23;19943;-82
2021/11/05 02:34:34;;;;;;;;;;;;;;;;;;6111241;23;19924;-89
2021/11/05 02:37:03;;;;;;;;;;;;;;;;;;6111235;23;19927;-85
2021/11/05 02:39:33;;;;;;;;;;;;;;;;;;6113172;23;19920;-82
2021/11/05 02:42:02;;;;;;;;;;;;;;;;;;6113778;23;19947;-89
2021/11/05 02:44:31;;;;;;;;;;;;;;;;;;6113884;23;19925;-86
2021/11/05 02:46:59;;;;;;;;;;;;;;;;;;6137324;23;19920;-85
2021/11/05 02:49:27;;;;;;;;;;;;;;;;;;6110025;23;20360;-82
2021/11/05 02:51:55;;;;;;;;;;;;;;;;;;6137948;23;19921;-82
2021/11/05 02:54:24;;;;;;;;;;;;;;;;;;6114381;23;19929;-85
2021/11/05 02:56:54;;;;;;;;;;;;;;;;;;6113965;23;20049;-83
2021/11/05 02:59:22;;;;;;;;;;;;;;;;;;6113610;23;19921;-83
2021/11/05 03:01:51;;;;;;;;;;;;;;;;;;6114625;23;19926;-86
2021/11/05 03:04:19;;;;;;;;;;;;;;;;;;6115936;23;20331;-84
2021/11/05 03:06:47;;;;;;;;;;;;;;;;;;6140953;23;19920;-84
2021/11/05 03:09:16;;;;;;;;;;;;;;;;;;6121207;23;19926;-84
2021/11/05 03:11:46;;;;;;;;;;;;;;;;;;6123285;23;19961;-85
2021/11/05 03:14:15;;;;;;;;;;;;;;;;;;6139023;23;19929;-85
2021/11/05 03:16:44;;;;;;;;;;;;;;;;;;6140222;23;19931;-85
2021/11/05 03:19:12;;;;;;;;;;;;;;;;;;6116012;23;19921;-84
2021/11/05 03:21:41;;;;;;;;;;;;;;;;;;6139334;23;19931;-82
2021/11/05 03:24:09;;;;;;;;;;;;;;;;;;6116702;23;19927;-81
2021/11/05 03:26:37;;;;;;;;;;;;;;;;;;6114618;23;19927;-82
2021/11/05 03:29:09;;;;;;;;;;;;;;;;;;6137710;23;19927;-82
2021/11/05 03:31:39;;;;;;;;;;;;;;;;;;6113964;23;19927;-82
2021/11/05 03:34:07;;;;;;;;;;;;;;;;;;6113644;23;19924;-83
2021/11/05 03:36:35;;;;;;;;;;;;;;;;;;6114732;23;19931;-88
2021/11/05 03:39:04;;;;;;;;;;;;;;;;;;6113438;23;19931;-81
2021/11/05 03:41:33;;;;;;;;;;;;;;;;;;6115785;23;20285;-84
2021/11/05 03:44:01;;;;;;;;;;;;;;;;;;6138992;23;19920;-85
2021/11/05 03:46:31;;;;;;;;;;;;;;;;;;6141294;23;20361;-86
2021/11/05 03:49:00;;;;;;;;;;;;;;;;;;6114592;23;19931;-85
2021/11/05 03:51:29;;;;;;;;;;;;;;;;;;6113414;23;20257;-87
2021/11/05 03:53:57;;;;;;;;;;;;;;;;;;6112579;23;19921;-90
2021/11/05 03:56:26;;;;;;;;;;;;;;;;;;6113052;23;19921;-87
2021/11/05 03:58:54;;;;;;;;;;;;;;;;;;6111197;23;19925;-86
2021/11/05 04:01:22;;;;;;;;;;;;;;;;;;6136643;23;20342;-87
2021/11/05 04:03:51;;;;;;;;;;;;;;;;;;6113125;23;19924;-86
2021/11/05 04:06:22;;;;;;;;;;;;;;;;;;6115669;23;19920;-87
2021/11/05 04:08:50;;;;;;;;;;;;;;;;;;6142312;23;20238;-87
2021/11/05 04:11:19;;;;;;;;;;;;;;;;;;6117271;23;19921;-86
2021/11/05 04:13:48;;;;;;;;;;;;;;;;;;6114974;23;19921;-83
2021/11/05 04:16:17;;;;;;;;;;;;;;;;;;6109284;23;20261;-84
2021/11/05 04:18:45;;;;;;;;;;;;;;;;;;6109568;23;19925;-86
2021/11/05 04:21:13;;;;;;;;;;;;;;;;;;6108966;23;19920;-89
2021/11/05 04:23:44;;;;;;;;;;;;;;;;;;6133530;23;19928;-87
2021/11/05 04:26:12;;;;;;;;;;;;;;;;;;6111838;23;19927;-91
2021/11/05 04:28:40;;;;;;;;;;;;;;;;;;6156977;23;19944;-92
2021/11/05 04:31:09;;;;;;;;;;;;;;;;;;6172550;23;19920;-84
2021/11/05 04:33:38;;;;;;;;;;;;;;;;;;6157612;23;19927;-90
2021/11/05 04:36:07;;;;;;;;;;;;;;;;;;6133117;23;19921;-87
2021/11/05 04:38:36;;;;;;;;;;;;;;;;;;6108081;23;19929;-83
2021/11/05 04:41:05;;;;;;;;;;;;;;;;;;6134114;23;19935;-85
2021/11/05 04:43:34;;;;;;;;;;;;;;;;;;6108121;23;19920;-89
2021/11/05 04:46:03;;;;;;;;;;;;;;;;;;6109529;23;20360;-84
2021/11/05 04:48:31;;;;;;;;;;;;;;;;;;6133788;23;19943;-85
2021/11/05 04:50:59;;;;;;;;;;;;;;;;;;6110363;23;19927;-84
2021/11/05 04:53:28;;;;;;;;;;;;;;;;;;6108790;23;19921;-84
2021/11/05 04:55:56;;;;;;;;;;;;;;;;;;6109700;23;20380;-87
2021/11/05 04:58:25;;;;;;;;;;;;;;;;;;6133441;23;19928;-87
2021/11/05 05:00:54;;;;;;;;;;;;;;;;;;6109840;23;19927;-84
2021/11/05 05:03:22;;;;;;;;;;;;;;;;;;6134391;23;19927;-88
2021/11/05 05:05:50;;;;;;;;;;;;;;;;;;6109561;23;20660;-85
2021/11/05 05:08:19;;;;;;;;;;;;;;;;;;6110669;23;19920;-83
2021/11/05 05:10:47;;;;;;;;;;;;;;;;;;6110486;23;19921;-90
2021/11/05 05:13:15;;;;;;;;;;;;;;;;;;6135035;23;19921;-88
2021/11/05 05:15:45;;;;;;;;;;;;;;;;;;6109771;23;20346;-87
2021/11/05 05:18:15;;;;;;;;;;;;;;;;;;6110246;23;20246;-88
2021/11/05 05:20:44;;;;;;;;;;;;;;;;;;6109777;23;19927;-86
2021/11/05 05:23:12;;;;;;;;;;;;;;;;;;6133360;23;19927;-89
2021/11/05 05:25:41;;;;;;;;;;;;;;;;;;6109199;23;19920;-84
2021/11/05 05:28:09;;;;;;;;;;;;;;;;;;6133967;23;20292;-84
2021/11/05 05:30:37;;;;;;;;;;;;;;;;;;6136139;23;19932;-82
2021/11/05 05:33:07;;;;;;;;;;;;;;;;;;6110232;23;19931;-88
2021/11/05 05:35:35;;;;;;;;;;;;;;;;;;6111983;23;20268;-83
2021/11/05 05:38:03;;;;;;;;;;;;;;;;;;6111102;23;19924;-85
2021/11/05 05:40:32;;;;;;;;;;;;;;;;;;6111105;23;20274;-85
2021/11/05 05:43:00;;;;;;;;;;;;;;;;;;6113815;23;19931;-89
2021/11/05 05:45:28;;;;;;;;;;;;;;;;;;6114341;23;19927;-89
2021/11/05 05:47:57;;;;;;;;;;;;;;;;;;6113783;23;19924;-84
2021/11/05 05:50:27;;;;;;;;;;;;;;;;;;6136022;23;20330;-86
2021/11/05 05:52:55;;;;;;;;;;;;;;;;;;6136463;23;20337;-84
2021/11/05 05:55:24;;;;;;;;;;;;;;;;;;6137071;23;20364;-84
2021/11/05 05:57:53;;;;;;;;;;;;;;;;;;6136289;23;19921;-89
2021/11/05 06:00:21;;;;;;;;;;;;;;;;;;6111473;23;19927;-83
2021/11/05 06:02:49;;;;;;;;;;;;;;;;;;6111159;23;20234;-84
2021/11/05 06:05:18;;;;;;;;;;;;;;;;;;6111831;23;19932;-86
2021/11/05 06:07:47;;;;;;;;;;;;;;;;;;6136405;23;19927;-88
2021/11/05 06:10:16;;;;;;;;;;;;;;;;;;6135623;23;20253;-82
2021/11/05 06:12:44;;;;;;;;;;;;;;;;;;6111836;23;19927;-83
2021/11/05 06:15:12;;;;;;;;;;;;;;;;;;6111352;23;19921;-83
2021/11/05 06:17:41;;;;;;;;;;;;;;;;;;6136401;23;20342;-82
2021/11/05 06:20:10;;;;;;;;;;;;;;;;;;6136853;23;19920;-88
2021/11/05 06:22:38;;;;;;;;;;;;;;;;;;6110646;23;20254;-85
2021/11/05 06:25:08;;;;;;;;;;;;;;;;;;6110130;23;19943;-87
2021/11/05 06:27:37;;;;;;;;;;;;;;;;;;6134707;23;19921;-85
2021/11/05 06:30:07;;;;;;;;;;;;;;;;;;6134143;23;19943;-87
2021/11/05 06:32:35;;;;;;;;;;;;;;;;;;6109128;23;19927;-87
2021/11/05 06:35:03;;;;;;;;;;;;;;;;;;6131906;23;19925;-91
2021/11/05 06:37:32;;;;;;;;;;;;;;;;;;6106154;23;19920;-90
2021/11/05 06:40:00;;;;;;;;;;;;;;;;;;6129875;23;19921;-89
2021/11/05 06:42:30;;;;;;;;;;;;;;;;;;6105011;23;20338;-89
2021/11/05 06:44:58;;;;;;;;;;;;;;;;;;6104214;23;19931;-90
2021/11/05 06:47:27;;;;;;;;;;;;;;;;;;6131526;23;19972;-92
2021/11/05 06:49:55;;;;;;;;;;;;;;;;;;6130164;23;19968;-86
2021/11/05 06:52:23;;;;;;;;;;;;;;;;;;6114060;23;19921;-87
2021/11/05 06:54:52;;;;;;;;;;;;;;;;;;6114121;23;19935;-86
2021/11/05 06:57:20;;;;;;;;;;;;;;;;;;6114573;23;20363;-88
2021/11/05 06:59:50;;;;;;;;;;;;;;;;;;6111958;23;20137;-89
2021/11/05 07:02:18;;;;;;;;;;;;;;;;;;6112047;23;19932;-88
2021/11/05 07:04:46;;;;;;;;;;;;;;;;;;6110894;23;19920;-90
2021/11/05 07:07:15;;;;;;;;;;;;;;;;;;6109119;23;19921;-91
2021/11/05 07:09:43;;;;;;;;;;;;;;;;;;6107729;23;20269;-87
2021/11/05 07:12:13;;;;;;;;;;;;;;;;;;6157670;23;20443;-89
2021/11/05 07:14:41;;;;;;;;;;;;;;;;;;6106945;23;19932;-89
2021/11/05 07:17:11;;;;;;;;;;;;;;;;;;6106747;23;19944;-85
2021/11/05 07:19:39;;;;;;;;;;;;;;;;;;6132484;23;19927;-90
2021/11/05 07:22:08;;;;;;;;;;;;;;;;;;6156576;23;20254;-87
2021/11/05 07:24:37;;;;;;;;;;;;;;;;;;6105592;23;19920;-85
2021/11/05 07:27:05;;;;;;;;;;;;;;;;;;6106634;23;19974;-90
2021/11/05 07:29:34;;;;;;;;;;;;;;;;;;6107913;23;19930;-88
2021/11/05 07:32:07;;;;;;;;;;;;;;;;;;6133283;23;19930;-87
2021/11/05 07:34:37;;;;;;;;;;;;;;;;;;6164493;23;20349;-93
2021/11/05 07:37:14;;;;;;;;;;;;;;;;;;6108909;23;19940;-90
2021/11/05 07:39:43;;;;;;;;;;;;;;;;;;6133425;23;19927;-90
2021/11/05 07:42:12;;;;;;;;;;;;;;;;;;6108575;23;19921;-89
2021/11/05 07:44:41;;;;;;;;;;;;;;;;;;6108788;23;19921;-90
2021/11/05 07:47:09;;;;;;;;;;;;;;;;;;6109023;23;19928;-89
2021/11/05 07:49:39;;;;;;;;;;;;;;;;;;6109949;23;19927;-89
2021/11/05 07:52:08;;;;;;;;;;;;;;;;;;6132798;23;19927;-88
2021/11/05 07:54:36;;;;;;;;;;;;;;;;;;6109157;23;19927;-88
2021/11/05 07:57:05;;;;;;;;;;;;;;;;;;6131942;23;19920;-89
2021/11/05 07:59:33;;;;;;;;;;;;;;;;;;6155059;23;20258;-88
2021/11/05 08:02:02;;;;;;;;;;;;;;;;;;6105302;23;19920;-87
2021/11/05 08:04:30;;;;;;;;;;;;;;;;;;6105820;23;19920;-88
2021/11/05 08:07:00;;;;;;;;;;;;;;;;;;6105871;23;19921;-86
2021/11/05 08:09:28;;;;;;;;;;;;;;;;;;6105726;23;20403;-87
2021/11/05 08:11:57;;;;;;;;;;;;;;;;;;6106822;23;19920;-87
2021/11/05 08:14:25;;;;;;;;;;;;;;;;;;6131612;23;19920;-90
2021/11/05 08:16:54;;;;;;;;;;;;;;;;;;6107166;23;19931;-88
2021/11/05 08:19:22;;;;;;;;;;;;;;;;;;6105157;23;20003;-88
2021/11/05 08:21:51;;;;;;;;;;;;;;;;;;6105475;23;19927;-88
2021/11/05 08:24:21;;;;;;;;;;;;;;;;;;6105145;23;19935;-89
2021/11/05 08:26:51;;;;;;;;;;;;;;;;;;6103721;23;20126;-88
2021/11/05 08:29:19;;;;;;;;;;;;;;;;;;6104037;23;19931;-91
2021/11/05 08:31:48;;;;;;;;;;;;;;;;;;6104041;23;20341;-89
2021/11/05 08:34:17;;;;;;;;;;;;;;;;;;6105554;23;19920;-88
2021/11/05 08:36:45;;;;;;;;;;;;;;;;;;6105132;23;19920;-86
2021/11/05 08:39:13;;;;;;;;;;;;;;;;;;6104750;23;19924;-88
2021/11/05 08:41:43;;;;;;;;;;;;;;;;;;6104033;23;20348;-88
2021/11/05 08:44:12;;;;;;;;;;;;;;;;;;6105303;23;20206;-88
2021/11/05 08:46:42;;;;;;;;;;;;;;;;;;6104551;23;19925;-90
2021/11/05 08:49:12;;;;;;;;;;;;;;;;;;6103058;23;19921;-90
2021/11/05 08:51:41;;;;;;;;;;;;;;;;;;6104273;23;19981;-89
2021/11/05 08:54:10;;;;;;;;;;;;;;;;;;6105229;23;20345;-88
2021/11/05 08:56:38;;;;;;;;;;;;;;;;;;6104590;23;19927;-88
2021/11/05 08:59:11;;;;;;;;;;;;;;;;;;6129320;23;19931;-90
2021/11/05 09:01:40;;;;;;;;;;;;;;;;;;6104774;23;19924;-90
2021/11/05 09:04:11;;;;;;;;;;;;;;;;;;6154794;23;19921;-92
2021/11/05 09:06:39;;;;;;;;;;;;;;;;;;6132357;23;19949;-91
2021/11/05 09:09:07;;;;;;;;;;;;;;;;;;6157271;23;19957;-94
2021/11/05 09:11:37;;;;;;;;;;;;;;;;;;6131926;23;19953;-91
2021/11/05 09:14:05;;;;;;;;;;;;;;;;;;6133202;23;19927;-92
2021/11/05 09:16:35;;;;;;;;;;;;;;;;;;6106443;23;19920;-89
2021/11/05 09:19:04;;;;;;;;;;;;;;;;;;6105490;23;19931;-91
2021/11/05 09:21:38;;;;;;;;;;;;;;;;;;6131386;23;20430;-90
2021/11/05 09:24:07;;;;;;;;;;;;;;;;;;6099835;23;20249;-89
2021/11/05 09:26:36;;;;;;;;;;;;;;;;;;6151894;23;19924;-89
2021/11/05 09:29:07;;;;;;;;;;;;;;;;;;6104009;23;19928;-89
2021/11/05 09:31:37;;;;;;;;;;;;;;;;;;6104576;23;19920;-88
2021/11/05 09:34:05;;;;;;;;;;;;;;;;;;6129225;23;19931;-91
2021/11/05 09:36:33;;;;;;;;;;;;;;;;;;6105471;23;19928;-89
2021/11/05 09:39:02;;;;;;;;;;;;;;;;;;6130362;23;19921;-91
2021/11/05 09:41:31;;;;;;;;;;;;;;;;;;6106131;23;19925;-89
2021/11/05 09:43:59;;;;;;;;;;;;;;;;;;6106299;23;20265;-89
2021/11/05 09:46:29;;;;;;;;;;;;;;;;;;6155128;23;19931;-92
2021/11/05 09:48:59;;;;;;;;;;;;;;;;;;6105499;23;19927;-90
2021/11/05 09:51:27;;;;;;;;;;;;;;;;;;6130694;23;19954;-89
2021/11/05 09:53:58;;;;;;;;;;;;;;;;;;6130449;23;19920;-89
2021/11/05 09:56:29;;;;;;;;;;;;;;;;;;6107983;23;19926;-89
2021/11/05 09:58:58;;;;;;;;;;;;;;;;;;6132798;23;20346;-91
2021/11/05 10:01:29;;;;;;;;;;;;;;;;;;6105108;23;19921;-91
2021/11/05 10:03:59;;;;;;;;;;;;;;;;;;6131850;23;19940;-90
2021/11/05 10:06:27;;;;;;;;;;;;;;;;;;6106229;23;19931;-90
2021/11/05 10:08:58;;;;;;;;;;;;;;;;;;6104816;23;20219;-87
2021/11/05 10:11:27;;;;;;;;;;;;;;;;;;6128810;23;19921;-89
2021/11/05 10:13:56;;;;;;;;;;;;;;;;;;6102730;23;19921;-89
2021/11/05 10:16:25;;;;;;;;;;;;;;;;;;6102912;23;19925;-89
2021/11/05 10:18:55;;;;;;;;;;;;;;;;;;6127103;23;19932;-91
2021/11/05 10:21:24;;;;;;;;;;;;;;;;;;6127509;23;19932;-89
2021/11/05 10:23:53;;;;;;;;;;;;;;;;;;6126060;23;19931;-91
2021/11/05 10:26:22;;;;;;;;;;;;;;;;;;6103337;23;19921;-90
2021/11/05 10:28:50;;;;;;;;;;;;;;;;;;6103365;23;19920;-89
2021/11/05 10:31:24;;;;;;;;;;;;;;;;;;6102757;23;20368;-91
2021/11/05 10:33:54;;;;;;;;;;;;;;;;;;6123152;23;19924;-87
2021/11/05 10:36:24;;;;;;;;;;;;;;;;;;6125085;23;19936;-90
2021/11/05 10:38:54;;;;;;;;;;;;;;;;;;6126730;23;20349;-91
2021/11/05 10:41:23;;;;;;;;;;;;;;;;;;6130173;23;19936;-92
2021/11/05 10:43:52;;;;;;;;;;;;;;;;;;6104088;23;19920;-92
2021/11/05 10:46:25;;;;;;;;;;;;;;;;;;6105900;23;19940;-92
2021/11/05 10:48:53;;;;;;;;;;;;;;;;;;6107509;23;20253;-91
2021/11/05 10:51:23;;;;;;;;;;;;;;;;;;6106782;23;19951;-91
2021/11/05 10:53:53;;;;;;;;;;;;;;;;;;6103772;23;19924;-89
2021/11/05 10:56:24;;;;;;;;;;;;;;;;;;6100752;23;19932;-88
2021/11/05 10:58:53;;;;;;;;;;;;;;;;;;6159401;23;19935;-93
2021/11/05 11:01:22;;;;;;;;;;;;;;;;;;6104204;23;19925;-90
2021/11/05 11:03:51;;;;;;;;;;;;;;;;;;6126950;23;19920;-90
2021/11/05 11:06:21;;;;;;;;;;;;;;;;;;6103191;23;19921;-91
2021/11/05 11:08:50;;;;;;;;;;;;;;;;;;6103507;23;20265;-92
2021/11/05 11:11:22;;;;;;;;;;;;;;;;;;6155174;23;19921;-91
2021/11/05 11:13:51;;;;;;;;;;;;;;;;;;6139599;23;19927;-91
2021/11/05 11:16:25;;;;;;;;;;;;;;;;;;6104703;23;19927;-91
2021/11/05 11:19:01;;;;;;;;;;;;;;;;;;6107212;23;19920;-89
2021/11/05 11:21:31;;;;;;;;;;;;;;;;;;6107105;23;19921;-88
2021/11/05 11:23:59;;;;;;;;;;;;;;;;;;6108139;23;19921;-91
2021/11/05 11:26:29;;;;;;;;;;;;;;;;;;6132439;23;20258;-90
2021/11/05 11:28:58;;;;;;;;;;;;;;;;;;6110383;23;20312;-91
2021/11/05 11:31:26;;;;;;;;;;;;;;;;;;6116456;23;19908;-94
2021/11/05 11:34:01;;;;;;;;;;;;;;;;;;6132944;23;19968;-94
2021/11/05 11:36:31;;;;;;;;;;;;;;;;;;6146506;23;19920;-90
2021/11/05 11:38:59;;;;;;;;;;;;;;;;;;6131316;23;19920;-87
2021/11/05 11:41:28;;;;;;;;;;;;;;;;;;6107384;23;19921;-91
2021/11/05 11:44:02;;;;;;;;;;;;;;;;;;6106817;23;19920;-86
2021/11/05 11:46:31;;;;;;;;;;;;;;;;;;6106220;23;19927;-90
2021/11/05 11:49:11;;;;;;;;;;;;;;;;;;6105391;23;19927;-90
2021/11/05 11:51:43;;;;;;;;;;;;;;;;;;6104500;23;20245;-88
2021/11/05 11:54:28;;;;;;;;;;;;;;;;;;6104550;23;19944;-88
2021/11/05 11:57:07;;;;;;;;;;;;;;;;;;6105456;23;19921;-90
2021/11/05 11:59:38;;;;;;;;;;;;;;;;;;6105233;23;20253;-88
2021/11/05 12:02:21;;;;;;;;;;;;;;;;;;6130397;23;20133;-89
2021/11/05 12:04:49;;;;;;;;;;;;;;;;;;6103305;23;19921;-90
2021/11/05 12:07:18;;;;;;;;;;;;;;;;;;6109007;23;19921;-90
2021/11/05 12:09:47;;;;;;;;;;;;;;;;;;6128695;23;19951;-89
2021/11/05 12:12:32;;;;;;;;;;;;;;;;;;6106259;23;19921;-92
2021/11/05 12:15:14;;;;;;;;;;;;;;;;;;6106378;23;19928;-89
2021/11/05 12:18:06;;;;;;;;;;;;;;;;;;6107913;23;19927;-87
2021/11/05 12:20:44;;;;;;;;;;;;;;;;;;6109104;23;19927;-87
2021/11/05 12:23:17;;;;;;;;;;;;;;;;;;6105633;23;19921;-89
2021/11/05 12:25:46;;;;;;;;;;;;;;;;;;6105864;23;19924;-87
2021/11/05 12:28:15;;;;;;;;;;;;;;;;;;6105310;23;19921;-89
2021/11/05 12:30:45;;;;;;;;;;;;;;;;;;6105662;23;19921;-87
2021/11/05 12:33:34;;;;;;;;;;;;;;;;;;6106343;23;19921;-87
2021/11/05 12:36:03;;;;;;;;;;;;;;;;;;6124288;23;19920;-87
2021/11/05 12:38:32;;;;;;;;;;;;;;;;;;6106525;23;20269;-88
2021/11/05 12:41:02;;;;;;;;;;;;;;;;;;6107190;23;19920;-90
2021/11/05 12:43:41;;;;;;;;;;;;;;;;;;6106670;23;19927;-89
2021/11/05 12:46:13;;;;;;;;;;;;;;;;;;6106078;23;20257;-87
2021/11/05 12:48:59;;;;;;;;;;;;;;;;;;6106514;23;19928;-89
2021/11/05 12:51:29;;;;;;;;;;;;;;;;;;6105347;23;19924;-88
2021/11/05 12:53:58;;;;;;;;;;;;;;;;;;6106698;23;19927;-88
2021/11/05 12:56:28;;;;;;;;;;;;;;;;;;6106146;23;20261;-87
2021/11/05 12:58:57;;;;;;;;;;;;;;;;;;6106780;23;20237;-90
2021/11/05 13:01:30;;;;;;;;;;;;;;;;;;6106699;23;20226;-88
2021/11/05 13:04:05;;;;;;;;;;;;;;;;;;6129634;23;19925;-89
2021/11/05 13:06:35;;;;;;;;;;;;;;;;;;6104660;23;19931;-88
2021/11/05 13:09:03;;;;;;;;;;;;;;;;;;6105889;23;19920;-89
2021/11/05 13:11:32;;;;;;;;;;;;;;;;;;6106840;23;20226;-86
2021/11/05 13:14:00;;;;;;;;;;;;;;;;;;6107270;23;19927;-89
2021/11/05 13:16:34;;;;;;;;;;;;;;;;;;6107713;23;19921;-87
2021/11/05 13:19:03;;;;;;;;;;;;;;;;;;6108025;23;19920;-89
2021/11/05 13:21:31;;;;;;;;;;;;;;;;;;6108300;23;19927;-89
2021/11/05 13:24:03;;;;;;;;;;;;;;;;;;6108795;23;19921;-89
2021/11/05 13:26:32;;;;;;;;;;;;;;;;;;6137953;23;19920;-86
2021/11/05 13:29:01;;;;;;;;;;;;;;;;;;6151666;23;19921;-89
2021/11/05 13:31:30;;;;;;;;;;;;;;;;;;6105019;23;19927;-88
2021/11/05 13:34:03;;;;;;;;;;;;;;;;;;6106245;23;19927;-90
2021/11/05 13:36:32;;;;;;;;;;;;;;;;;;6106037;23;20356;-92
2021/11/05 13:39:00;;;;;;;;;;;;;;;;;;6105403;23;19925;-88
2021/11/05 13:41:28;;;;;;;;;;;;;;;;;;6105096;23;20368;-88
2021/11/05 13:43:58;;;;;;;;;;;;;;;;;;6154266;23;19924;-90
2021/11/05 13:46:29;;;;;;;;;;;;;;;;;;6104966;23;19921;-91
2021/11/05 13:49:00;;;;;;;;;;;;;;;;;;6105379;23;19966;-90
2021/11/05 13:51:29;;;;;;;;;;;;;;;;;;6105404;23;19927;-86
2021/11/05 13:53:59;;;;;;;;;;;;;;;;;;6105245;23;19931;-89
2021/11/05 13:56:29;;;;;;;;;;;;;;;;;;6122974;23;19909;-95
2021/11/05 13:58:58;;;;;;;;;;;;;;;;;;6131012;23;19948;-90
2021/11/05 14:01:29;;;;;;;;;;;;;;;;;;6108481;23;19921;-89
2021/11/05 14:04:00;;;;;;;;;;;;;;;;;;6128139;23;19924;-90
2021/11/05 14:06:28;;;;;;;;;;;;;;;;;;6104431;23;19930;-89
2021/11/05 14:08:57;;;;;;;;;;;;;;;;;;6106293;23;19921;-91
2021/11/05 14:11:30;;;;;;;;;;;;;;;;;;6103393;23;20346;-87
2021/11/05 14:14:00;;;;;;;;;;;;;;;;;;6104847;23;19921;-88
2021/11/05 14:16:31;;;;;;;;;;;;;;;;;;6106044;23;19920;-87
2021/11/05 14:19:08;;;;;;;;;;;;;;;;;;6105940;23;20338;-88
2021/11/05 14:21:37;;;;;;;;;;;;;;;;;;6106579;23;19974;-87
2021/11/05 14:24:13;;;;;;;;;;;;;;;;;;6106338;23;19924;-90
2021/11/05 14:26:42;;;;;;;;;;;;;;;;;;6108100;23;19921;-89
2021/11/05 14:29:11;;;;;;;;;;;;;;;;;;6107927;23;19920;-89
2021/11/05 14:31:53;;;;;;;;;;;;;;;;;;6106708;23;19921;-88
2021/11/05 14:34:23;;;;;;;;;;;;;;;;;;6107863;23;20432;-90
2021/11/05 14:37:06;;;;;;;;;;;;;;;;;;6108026;23;19931;-89
2021/11/05 14:39:48;;;;;;;;;;;;;;;;;;6108404;23;19928;-88
2021/11/05 14:42:18;;;;;;;;;;;;;;;;;;6110136;23;19920;-89
2021/11/05 14:44:47;;;;;;;;;;;;;;;;;;6111897;23;19946;-90
2021/11/05 14:47:15;;;;;;;;;;;;;;;;;;6109368;23;19924;-89
2021/11/05 14:49:47;;;;;;;;;;;;;;;;;;6106107;23;19921;-88
2021/11/05 14:52:15;;;;;;;;;;;;;;;;;;6106647;23;19925;-90
2021/11/05 14:54:44;;;;;;;;;;;;;;;;;;6106691;23;19921;-89
2021/11/05 14:57:13;;;;;;;;;;;;;;;;;;6130852;23;20261;-88
2021/11/05 14:59:43;;;;;;;;;;;;;;;;;;6106591;23;19927;-88
2021/11/05 15:02:30;;;;;;;;;;;;;;;;;;6108138;23;19921;-90
2021/11/05 15:05:13;;;;;;;;;;;;;;;;;;6107117;23;20277;-90
2021/11/05 15:07:48;;;;;;;;;;;;;;;;;;6107383;23;19921;-89
2021/11/05 15:10:21;;;;;;;;;;;;;;;;;;6106599;23;19920;-90
2021/11/05 15:12:49;;;;;;;;;;;;;;;;;;6106434;23;19921;-89
2021/11/05 15:15:18;;;;;;;;;;;;;;;;;;6106052;23;20338;-90
2021/11/05 15:17:47;;;;;;;;;;;;;;;;;;6107302;23;19921;-88
2021/11/05 15:20:15;;;;;;;;;;;;;;;;;;6106516;23;19936;-92
2021/11/05 15:22:43;;;;;;;;;;;;;;;;;;6106718;23;19921;-90
2021/11/05 15:25:13;;;;;;;;;;;;;;;;;;6105591;23;19921;-89
2021/11/05 15:27:45;;;;;;;;;;;;;;;;;;6106257;23;19931;-88
2021/11/05 15:30:18;;;;;;;;;;;;;;;;;;6106322;23;20268;-91
2021/11/05 15:32:47;;;;;;;;;;;;;;;;;;6106320;23;19931;-90
2021/11/05 15:39:43;;;;;;;;;;;;;;;;;;6178402;23;19918;-93
2021/11/05 15:42:20;;;;;;;;;;;;;;;;;;6118308;23;19920;-93
2021/11/05 15:44:52;;;;;;;;;;;;;;;;;;6113698;23;19923;-89
2021/11/05 15:47:20;;;;;;;;;;;;;;;;;;6113079;23;19927;-94
2021/11/05 15:49:49;;;;;;;;;;;;;;;;;;6112603;23;19927;-92
2021/11/05 15:52:17;;;;;;;;;;;;;;;;;;6113696;23;19920;-91
2021/11/05 15:54:46;;;;;;;;;;;;;;;;;;6113307;23;19925;-91
2021/11/05 15:57:15;;;;;;;;;;;;;;;;;;6113689;23;19921;-92
2021/11/05 15:59:46;;;;;;;;;;;;;;;;;;6113183;23;19920;-90
2021/11/05 16:02:14;;;;;;;;;;;;;;;;;;6113166;23;19920;-94
2021/11/05 16:04:43;;;;;;;;;;;;;;;;;;6113455;23;19921;-91
2021/11/05 16:07:12;;;;;;;;;;;;;;;;;;6112578;23;19931;-92
2021/11/05 16:09:40;;;;;;;;;;;;;;;;;;6136204;23;19920;-92
2021/11/05 16:12:10;;;;;;;;;;;;;;;;;;6114747;23;19921;-92
2021/11/05 16:14:38;;;;;;;;;;;;;;;;;;6113653;23;19927;-92
2021/11/05 16:17:08;;;;;;;;;;;;;;;;;;6113363;23;20269;-92
2021/11/05 16:19:37;;;;;;;;;;;;;;;;;;6118151;23;20342;-92
2021/11/05 16:22:05;;;;;;;;;;;;;;;;;;6132029;23;19960;-93
2021/11/05 16:24:36;;;;;;;;;;;;;;;;;;6151646;23;19920;-94
2021/11/05 16:27:12;;;;;;;;;;;;;;;;;;6140644;23;19921;-93
2021/11/05 16:29:40;;;;;;;;;;;;;;;;;;6114732;23;20349;-92
2021/11/05 16:32:13;;;;;;;;;;;;;;;;;;6139590;23;19943;-92
2021/11/05 16:34:43;;;;;;;;;;;;;;;;;;6116047;23;19920;-91
2021/11/05 16:37:11;;;;;;;;;;;;;;;;;;6115895;23;19921;-91
2021/11/05 16:39:40;;;;;;;;;;;;;;;;;;6114147;23;19921;-92
2021/11/05 16:42:11;;;;;;;;;;;;;;;;;;6114214;23;19927;-92
2021/11/05 16:44:40;;;;;;;;;;;;;;;;;;6120645;23;19925;-94
2021/11/05 16:47:09;;;;;;;;;;;;;;;;;;6117553;23;19920;-92
2021/11/05 16:49:39;;;;;;;;;;;;;;;;;;6121393;23;19931;-91
2021/11/05 16:52:08;;;;;;;;;;;;;;;;;;6122455;23;19924;-92
2021/11/05 16:54:37;;;;;;;;;;;;;;;;;;6117242;23;19933;-92
2021/11/05 16:57:06;;;;;;;;;;;;;;;;;;6121376;23;19921;-92
2021/11/05 16:59:43;;;;;;;;;;;;;;;;;;6122871;23;19920;-93
2021/11/05 17:02:13;;;;;;;;;;;;;;;;;;6125211;23;19927;-93
2021/11/05 17:04:44;;;;;;;;;;;;;;;;;;6124318;23;19921;-93
2021/11/05 17:07:13;;;;;;;;;;;;;;;;;;6123971;23;19920;-93